createdAt,value
2018-01-12T00:00:50.707Z,15.68
2018-01-12T00:03:18.201Z,16.67
2018-01-12T00:05:45.716Z,16.30
2018-01-12T00:08:13.222Z,16.73
2018-01-12T00:10:40.742Z,15.20
2018-01-12T00:13:09.007Z,22.67
2018-01-12T00:15:36.518Z,19.52
2018-01-12T00:18:04.031Z,16.25
2018-01-12T00:20:31.526Z,15.35
2018-01-12T00:22:59.028Z,14.68
2018-01-12T00:25:26.526Z,15.10
2018-01-12T00:27:54.795Z,15.63
2018-01-12T00:30:23.067Z,16.45
2018-01-12T00:32:51.458Z,14.93
2018-01-12T00:35:19.718Z,14.07
2018-01-12T00:37:47.986Z,15.25
2018-01-12T00:40:15.491Z,15.07
2018-01-12T00:42:42.988Z,14.40
2018-01-12T00:45:10.498Z,15.55
2018-01-12T00:47:37.995Z,14.90
2018-01-12T00:50:05.567Z,15.45
2018-01-12T00:52:33.218Z,16.48
2018-01-12T00:55:00.754Z,14.70
2018-01-12T00:57:28.995Z,16.05
2018-01-12T00:59:57.258Z,17.40
2018-01-12T01:02:25.531Z,16.75
2018-01-12T01:04:53.034Z,14.77
2018-01-12T01:07:20.535Z,15.50
2018-01-12T01:09:48.052Z,14.77
2018-01-12T01:12:15.554Z,14.70
2018-01-12T01:14:43.055Z,16.52
2018-01-12T01:17:10.554Z,14.98
2018-01-12T01:19:38.255Z,15.25
2018-01-12T01:22:06.519Z,15.20
2018-01-12T01:24:34.018Z,14.93
2018-01-12T01:27:01.534Z,15.15
2018-01-12T01:29:29.826Z,15.00
2018-01-12T01:31:58.099Z,16.00
2018-01-12T01:34:26.367Z,17.00
2018-01-12T01:36:54.639Z,14.02
2018-01-12T01:39:22.139Z,16.05
2018-01-12T01:41:49.680Z,16.23
2018-01-12T01:44:17.954Z,14.50
2018-01-12T01:46:46.211Z,15.25
2018-01-12T01:49:13.727Z,15.55
2018-01-12T01:51:41.342Z,14.20
2018-01-12T01:54:09.600Z,14.60
2018-01-12T01:56:37.096Z,14.30
2018-01-12T01:59:04.635Z,15.15
2018-01-12T02:01:32.898Z,15.07
2018-01-12T02:04:00.402Z,16.27
2018-01-12T02:06:27.899Z,14.82
2018-01-12T02:08:55.391Z,15.02
2018-01-12T02:11:23.655Z,16.10
2018-01-12T02:13:51.939Z,15.35
2018-01-12T02:16:20.207Z,15.70
2018-01-12T02:18:48.480Z,16.30
2018-01-12T02:21:15.990Z,15.82
2018-01-12T02:23:43.514Z,15.88
2018-01-12T02:26:11.814Z,16.80
2018-01-12T02:28:39.310Z,17.50
2018-01-12T02:31:06.860Z,15.50
2018-01-12T02:33:34.363Z,16.05
2018-01-12T02:36:02.639Z,18.05
2018-01-12T02:38:30.899Z,17.42
2018-01-12T02:40:58.402Z,18.15
2018-01-12T02:43:26.019Z,18.67
2018-01-12T02:45:53.705Z,19.15
2018-01-12T02:48:21.967Z,23.08
2018-01-12T02:50:50.232Z,18.48
2018-01-12T02:53:17.728Z,19.02
2018-01-12T02:55:45.406Z,21.37
2018-01-12T02:58:12.908Z,18.30
2018-01-12T03:00:40.404Z,21.70
2018-01-12T03:03:07.902Z,21.55
2018-01-12T03:05:35.446Z,18.83
2018-01-12T03:08:03.166Z,19.33
2018-01-12T03:10:31.430Z,19.58
2018-01-12T03:12:59.696Z,17.73
2018-01-12T03:15:27.217Z,19.02
2018-01-12T03:17:54.726Z,19.50
2018-01-12T03:20:22.999Z,21.02
2018-01-12T03:22:51.287Z,18.90
2018-01-12T03:25:19.552Z,18.58
2018-01-12T03:27:47.823Z,21.30
2018-01-12T03:30:15.328Z,19.70
2018-01-12T03:32:42.829Z,24.08
2018-01-12T03:35:10.340Z,29.35
2018-01-12T03:37:37.834Z,21.87
2018-01-12T03:40:05.331Z,23.33
2018-01-12T03:42:33.595Z,21.55
2018-01-12T03:45:01.268Z,20.30
2018-01-12T03:47:29.547Z,20.17
2018-01-12T03:49:57.819Z,20.83
2018-01-12T03:52:26.120Z,20.27
2018-01-12T03:54:53.617Z,20.08
2018-01-12T03:57:21.112Z,22.05
2018-01-12T03:59:49.383Z,19.83
2018-01-12T04:02:17.650Z,20.60
2018-01-12T04:04:45.158Z,21.12
2018-01-12T04:07:12.675Z,22.10
2018-01-12T04:09:40.951Z,18.58
2018-01-12T04:12:09.228Z,20.12
2018-01-12T04:14:37.502Z,20.05
2018-01-12T04:17:05.778Z,21.05
2018-01-12T04:19:34.038Z,23.77
2018-01-12T04:22:01.531Z,20.48
2018-01-12T04:24:29.815Z,22.00
2018-01-12T04:26:57.323Z,23.87
2018-01-12T04:29:24.823Z,21.75
2018-01-12T04:31:53.095Z,22.55
2018-01-12T04:34:21.375Z,22.70
2018-01-12T04:36:49.647Z,21.35
2018-01-12T04:39:17.910Z,21.67
2018-01-12T04:41:46.270Z,21.17
2018-01-12T04:44:13.767Z,21.33
2018-01-12T04:46:41.276Z,21.20
2018-01-12T04:49:08.784Z,21.10
2018-01-12T04:51:36.284Z,23.23
2018-01-12T04:54:03.778Z,21.87
2018-01-12T04:56:32.069Z,20.65
2018-01-12T04:59:00.345Z,20.67
2018-01-12T05:01:28.636Z,22.62
2018-01-12T05:03:56.256Z,22.42
2018-01-12T05:06:23.766Z,21.60
2018-01-12T05:08:51.271Z,21.60
2018-01-12T05:11:18.972Z,22.40
2018-01-12T05:13:46.628Z,22.52
2018-01-12T05:16:15.192Z,22.23
2018-01-12T05:18:43.481Z,21.80
2018-01-12T05:21:11.775Z,21.77
2018-01-12T05:23:39.271Z,21.73
2018-01-12T05:26:06.763Z,23.45
2018-01-12T05:28:35.043Z,22.58
2018-01-12T05:31:03.311Z,21.55
2018-01-12T05:33:30.807Z,21.42
2018-01-12T05:35:58.309Z,22.08
2018-01-12T05:38:25.829Z,20.62
2018-01-12T05:40:54.218Z,21.85
2018-01-12T05:43:21.723Z,22.17
2018-01-12T05:45:49.223Z,23.77
2018-01-12T05:50:50.666Z,21.37
2018-01-12T05:53:18.942Z,22.13
2018-01-12T05:55:47.227Z,22.20
2018-01-12T05:58:15.507Z,20.77
2018-01-12T06:14:09.497Z,25.65
2018-01-12T06:16:37.007Z,30.23
2018-01-12T06:19:05.276Z,27.15
2018-01-12T06:21:32.800Z,25.27
2018-01-12T06:24:00.315Z,27.90
2018-01-12T06:26:28.583Z,24.33
2018-01-12T06:28:56.839Z,25.10
2018-01-12T06:31:24.339Z,24.83
2018-01-12T06:33:51.835Z,25.20
2018-01-12T06:36:19.326Z,22.50
2018-01-12T06:38:46.828Z,20.15
2018-01-12T06:41:14.347Z,20.90
2018-01-12T06:43:42.606Z,20.85
2018-01-12T06:46:10.163Z,24.60
2018-01-12T06:48:37.673Z,24.35
2018-01-12T06:51:05.173Z,24.15
2018-01-12T06:53:32.739Z,22.17
2018-01-12T06:56:00.208Z,22.80
2018-01-12T06:58:27.706Z,24.83
2018-01-12T07:00:55.207Z,23.55
2018-01-12T07:03:22.711Z,25.00
2018-01-12T07:05:50.219Z,33.85
2018-01-12T07:08:17.718Z,25.12
2018-01-12T07:10:45.983Z,23.23
2018-01-12T07:13:14.262Z,22.17
2018-01-12T07:15:42.522Z,20.80
2018-01-12T07:18:10.039Z,21.98
2018-01-12T07:20:49.528Z,23.20
2018-01-12T07:23:31.922Z,20.92
2018-01-12T07:25:59.431Z,20.77
2018-01-12T07:28:26.935Z,22.70
2018-01-12T07:30:54.446Z,20.80
2018-01-12T07:33:21.944Z,22.55
2018-01-12T07:35:49.450Z,23.12
2018-01-12T07:38:16.954Z,21.25
2018-01-12T07:40:44.462Z,21.83
2018-01-12T07:43:12.726Z,21.42
2018-01-12T07:45:41.223Z,23.17
2018-01-12T07:48:09.504Z,23.33
2018-01-12T07:50:37.007Z,24.30
2018-01-12T07:53:10.203Z,30.10
2018-01-12T07:55:37.697Z,30.25
2018-01-12T07:58:06.004Z,26.80
2018-01-12T08:00:39.359Z,23.73
2018-01-12T08:03:07.627Z,21.25
2018-01-12T08:05:35.306Z,20.98
2018-01-12T08:08:03.653Z,20.48
2018-01-12T08:10:31.342Z,20.92
2018-01-12T08:12:59.608Z,22.30
2018-01-12T08:15:27.107Z,20.12
2018-01-12T08:17:54.651Z,20.90
2018-01-12T08:20:22.154Z,19.98
2018-01-12T08:22:49.654Z,21.00
2018-01-12T08:25:17.970Z,21.33
2018-01-12T08:27:45.498Z,21.58
2018-01-12T08:30:13.035Z,21.42
2018-01-12T08:32:40.555Z,22.08
2018-01-12T08:35:08.077Z,24.45
2018-01-12T08:37:36.375Z,24.90
2018-01-12T08:40:03.890Z,21.27
2018-01-12T08:42:31.416Z,21.87
2018-01-12T08:44:58.951Z,20.50
2018-01-12T08:47:26.617Z,20.90
2018-01-12T08:49:54.203Z,23.12
2018-01-12T08:52:21.921Z,22.00
2018-01-12T08:54:49.475Z,20.60
2018-01-12T08:57:17.793Z,20.33
2018-01-12T08:59:45.302Z,22.08
2018-01-12T09:02:13.562Z,21.77
2018-01-12T09:04:41.840Z,21.48
2018-01-12T09:07:09.347Z,19.52
2018-01-12T09:09:36.845Z,22.35
2018-01-12T09:12:04.334Z,20.85
2018-01-12T09:14:44.423Z,19.65
2018-01-12T09:17:12.719Z,20.02
2018-01-12T09:19:48.224Z,22.45
2018-01-12T09:22:27.715Z,20.75
2018-01-12T09:24:55.234Z,20.55
2018-01-12T09:27:22.736Z,21.77
2018-01-12T09:29:50.246Z,20.05
2018-01-12T09:32:18.115Z,22.85
2018-01-12T09:35:05.442Z,20.95
2018-01-12T09:37:39.826Z,19.70
2018-01-12T09:40:29.046Z,18.30
2018-01-12T09:42:56.579Z,20.50
2018-01-12T09:45:24.104Z,21.92
2018-01-12T09:48:03.474Z,20.98
2018-01-12T09:50:31.037Z,21.52
2018-01-12T09:52:58.606Z,22.13
2018-01-12T09:55:26.252Z,22.35
2018-01-12T09:57:53.771Z,22.60
2018-01-12T10:13:48.778Z,19.20
2018-01-12T10:16:17.149Z,23.12
2018-01-12T10:18:45.424Z,22.23
2018-01-12T10:21:24.815Z,21.00
2018-01-12T10:23:52.394Z,21.52
2018-01-12T10:26:19.858Z,24.55
2018-01-12T10:29:08.302Z,23.35
2018-01-12T10:31:50.680Z,22.85
2018-01-12T10:34:24.070Z,21.62
2018-01-12T10:36:55.662Z,20.35
2018-01-12T10:39:23.170Z,23.77
2018-01-12T10:42:01.730Z,20.90
2018-01-12T10:44:29.243Z,21.90
2018-01-12T10:47:08.701Z,21.60
2018-01-12T10:49:36.218Z,20.88
2018-01-12T10:52:12.592Z,19.92
2018-01-12T10:54:40.870Z,20.20
2018-01-12T10:57:09.137Z,19.83
2018-01-12T10:59:37.410Z,22.00
2018-01-12T11:02:04.906Z,20.40
2018-01-12T11:04:32.418Z,23.27
2018-01-12T11:06:59.984Z,23.17
2018-01-12T11:09:27.482Z,22.52
2018-01-12T11:11:54.974Z,21.67
2018-01-12T11:14:22.474Z,20.80
2018-01-12T11:16:50.745Z,22.70
2018-01-12T11:19:19.226Z,23.40
2018-01-12T11:21:47.496Z,23.58
2018-01-12T11:24:15.756Z,21.98
2018-01-12T11:26:43.270Z,20.92
2018-01-12T11:29:10.771Z,21.77
2018-01-12T11:31:38.333Z,21.52
2018-01-12T11:34:05.827Z,21.60
2018-01-12T11:36:33.334Z,20.85
2018-01-12T11:39:00.852Z,22.50
2018-01-12T11:41:28.342Z,20.58
2018-01-12T11:43:56.259Z,20.00
2018-01-12T11:46:24.527Z,21.23
2018-01-12T11:48:52.809Z,21.45
2018-01-12T11:51:21.111Z,22.77
2018-01-12T11:53:48.607Z,20.00
2018-01-12T11:56:16.103Z,21.80
2018-01-12T11:58:44.390Z,21.58
2018-01-12T12:01:12.642Z,21.50
2018-01-12T12:03:40.162Z,19.35
2018-01-12T12:06:07.670Z,20.15
2018-01-12T12:08:35.938Z,20.37
2018-01-12T12:11:03.435Z,21.48
2018-01-12T12:13:30.937Z,21.35
2018-01-12T12:15:58.438Z,20.92
2018-01-12T12:18:25.943Z,21.08
2018-01-12T12:20:53.437Z,23.77
2018-01-12T12:23:21.703Z,21.95
2018-01-12T12:25:49.200Z,22.00
2018-01-12T12:28:16.705Z,22.40
2018-01-12T12:30:45.718Z,22.75
2018-01-12T12:33:14.000Z,22.25
2018-01-12T12:35:42.262Z,20.60
2018-01-12T12:38:09.763Z,22.13
2018-01-12T12:40:37.295Z,21.27
2018-01-12T12:43:05.562Z,20.50
2018-01-12T12:45:33.822Z,21.25
2018-01-12T12:48:01.342Z,22.13
2018-01-12T12:50:28.839Z,21.48
2018-01-12T12:52:56.344Z,20.83
2018-01-12T12:55:23.854Z,22.37
2018-01-12T12:57:51.353Z,21.48
2018-01-12T13:00:18.854Z,21.10
2018-01-12T13:02:46.389Z,21.35
2018-01-12T13:05:13.887Z,20.60
2018-01-12T13:07:41.386Z,21.20
2018-01-12T13:10:08.898Z,22.50
2018-01-12T13:12:36.394Z,21.55
2018-01-12T13:15:04.650Z,21.85
2018-01-12T13:17:32.144Z,21.00
2018-01-12T13:19:59.648Z,23.65
2018-01-12T13:22:27.140Z,25.35
2018-01-12T13:24:55.401Z,22.30
2018-01-12T13:27:23.706Z,23.10
2018-01-12T13:29:51.217Z,24.40
2018-01-12T13:32:18.712Z,25.33
2018-01-12T13:34:46.971Z,23.15
2018-01-12T13:37:14.463Z,22.58
2018-01-12T13:39:41.962Z,23.55
2018-01-12T13:42:09.484Z,22.73
2018-01-12T13:44:36.978Z,22.70
2018-01-12T13:47:04.492Z,25.27
2018-01-12T13:49:32.011Z,24.55
2018-01-12T13:51:59.519Z,23.87
2018-01-12T13:54:27.018Z,22.65
2018-01-12T13:56:54.526Z,23.20
2018-01-12T13:59:22.047Z,23.87
2018-01-12T14:01:49.530Z,25.23
2018-01-12T14:04:17.807Z,22.77
2018-01-12T14:06:46.266Z,22.77
2018-01-12T14:09:13.760Z,24.60
2018-01-12T14:11:41.279Z,24.27
2018-01-12T14:14:09.550Z,22.87
2018-01-12T14:16:37.810Z,23.05
2018-01-12T14:19:05.302Z,22.30
2018-01-12T14:21:33.559Z,23.55
2018-01-12T14:24:01.238Z,23.85
2018-01-12T14:26:29.507Z,28.65
2018-01-12T14:28:57.014Z,30.77
2018-01-12T14:31:24.522Z,35.33
2018-01-12T14:33:52.020Z,28.52
2018-01-12T14:36:19.516Z,22.20
2018-01-12T14:38:47.026Z,24.23
2018-01-12T14:41:14.527Z,23.00
2018-01-12T14:43:42.038Z,24.55
2018-01-12T14:46:10.343Z,23.87
2018-01-12T14:48:37.838Z,24.00
2018-01-12T14:51:05.402Z,23.05
2018-01-12T14:53:32.894Z,23.40
2018-01-12T14:56:00.399Z,23.25
2018-01-12T14:58:27.947Z,26.12
2018-01-12T15:00:55.442Z,23.10
2018-01-12T15:03:22.938Z,24.30
2018-01-12T15:05:50.459Z,23.85
2018-01-12T15:08:18.723Z,24.20
2018-01-12T15:10:46.234Z,23.30
2018-01-12T15:13:13.730Z,22.92
2018-01-12T15:15:41.311Z,24.73
2018-01-12T15:18:08.810Z,25.95
2018-01-12T15:20:36.307Z,25.30
2018-01-12T15:23:03.846Z,23.92
2018-01-12T15:25:31.342Z,25.67
2018-01-12T15:27:58.844Z,24.65
2018-01-12T15:30:26.343Z,24.65
2018-01-12T15:32:53.838Z,23.92
2018-01-12T15:35:22.107Z,26.87
2018-01-12T15:37:50.470Z,25.33
2018-01-12T15:40:17.970Z,24.90
2018-01-12T15:42:45.466Z,26.70
2018-01-12T15:45:12.958Z,26.27
2018-01-12T15:47:41.215Z,24.27
2018-01-12T15:50:08.726Z,27.58
2018-01-12T15:52:36.239Z,25.70
2018-01-12T15:55:03.736Z,26.50
2018-01-12T15:57:31.244Z,25.65
2018-01-12T15:59:58.765Z,26.15
2018-01-12T16:02:26.270Z,25.83
2018-01-12T16:04:53.772Z,25.60
2018-01-12T16:07:21.271Z,26.35
2018-01-12T16:09:48.888Z,27.50
2018-01-12T16:12:16.378Z,27.35
2018-01-12T16:14:43.898Z,25.55
2018-01-12T16:17:11.398Z,26.00
2018-01-12T16:19:38.893Z,24.33
2018-01-12T16:22:07.170Z,26.25
2018-01-12T16:24:35.442Z,28.10
2018-01-12T16:27:03.714Z,27.92
2018-01-12T16:29:31.978Z,25.15
2018-01-12T16:31:59.518Z,25.55
2018-01-12T16:34:27.018Z,25.08
2018-01-12T16:36:55.284Z,26.20
2018-01-12T16:39:22.816Z,26.25
2018-01-12T16:41:50.316Z,25.73
2018-01-12T16:44:18.577Z,27.40
2018-01-12T16:46:46.068Z,26.42
2018-01-12T16:49:13.570Z,28.80
2018-01-12T16:51:41.089Z,27.42
2018-01-12T16:54:08.578Z,27.75
2018-01-12T16:56:36.082Z,28.33
2018-01-12T16:59:04.346Z,27.58
2018-01-12T17:01:32.624Z,29.98
2018-01-12T17:04:00.898Z,30.20
2018-01-12T17:06:29.206Z,26.87
2018-01-12T17:08:56.698Z,28.00
2018-01-12T17:11:24.195Z,28.12
2018-01-12T17:13:52.470Z,28.20
2018-01-12T17:16:20.782Z,28.17
2018-01-12T17:18:48.279Z,27.55
2018-01-12T17:21:15.796Z,27.33
2018-01-12T17:23:43.302Z,26.73
2018-01-12T17:26:10.802Z,27.02
2018-01-12T17:28:38.299Z,27.50
2018-01-12T17:31:05.806Z,28.17
2018-01-12T17:33:34.071Z,27.87
2018-01-12T17:36:02.342Z,28.15
2018-01-12T17:38:29.951Z,27.52
2018-01-12T17:40:57.450Z,25.98
2018-01-12T17:43:24.991Z,27.85
2018-01-12T17:45:52.490Z,27.65
2018-01-12T17:48:20.863Z,27.42
2018-01-12T17:50:49.130Z,27.55
2018-01-12T17:53:16.812Z,27.92
2018-01-12T17:55:45.090Z,26.27
2018-01-12T17:58:13.357Z,39.30
2018-01-12T18:00:41.752Z,31.55
2018-01-12T18:03:09.252Z,29.90
2018-01-12T18:05:36.763Z,27.00
2018-01-12T18:08:05.020Z,28.17
2018-01-12T18:10:32.534Z,33.08
2018-01-12T18:13:00.032Z,28.20
2018-01-12T18:15:27.708Z,27.30
2018-01-12T18:17:55.976Z,27.25
2018-01-12T18:20:23.651Z,28.42
2018-01-12T18:22:51.910Z,29.67
2018-01-12T18:25:19.411Z,32.03
2018-01-12T18:27:46.920Z,28.58
2018-01-12T18:30:14.422Z,29.12
2018-01-12T18:32:41.933Z,26.37
2018-01-12T18:35:09.427Z,26.58
2018-01-12T18:37:36.922Z,26.80
2018-01-12T18:40:04.442Z,26.30
2018-01-12T18:42:32.706Z,28.58
2018-01-12T18:45:00.971Z,30.05
2018-01-12T18:47:28.483Z,29.10
2018-01-12T18:49:55.991Z,28.80
2018-01-12T18:52:23.486Z,29.58
2018-01-12T18:54:50.987Z,28.20
2018-01-12T18:57:18.604Z,28.38
2018-01-12T18:59:46.146Z,27.48
2018-01-12T19:02:14.423Z,28.12
2018-01-12T19:04:42.693Z,28.05
2018-01-12T19:07:11.006Z,27.67
2018-01-12T19:09:38.526Z,27.55
2018-01-12T19:12:06.790Z,26.52
2018-01-12T19:14:35.085Z,25.33
2018-01-12T19:17:03.362Z,26.70
2018-01-12T19:19:31.621Z,27.87
2018-01-12T19:21:59.882Z,27.45
2018-01-12T19:24:27.567Z,27.48
2018-01-12T19:26:55.078Z,28.62
2018-01-12T19:29:22.576Z,30.67
2018-01-12T19:31:50.887Z,29.67
2018-01-12T19:34:18.386Z,26.98
2018-01-12T19:36:45.887Z,28.35
2018-01-12T19:39:13.391Z,28.67
2018-01-12T19:41:40.903Z,29.40
2018-01-12T19:44:09.211Z,28.87
2018-01-12T19:46:36.714Z,28.38
2018-01-12T19:49:04.293Z,28.90
2018-01-12T19:51:32.608Z,28.00
2018-01-12T19:54:00.118Z,28.48
2018-01-12T19:56:28.426Z,28.33
2018-01-12T19:58:55.954Z,28.58
2018-01-12T20:01:24.283Z,27.92
2018-01-12T20:03:51.901Z,28.15
2018-01-12T20:06:20.168Z,30.73
2018-01-12T20:08:48.458Z,28.00
2018-01-12T20:11:16.776Z,28.42
2018-01-12T20:13:44.279Z,30.33
2018-01-12T20:16:12.554Z,27.85
2018-01-12T20:18:40.855Z,27.60
2018-01-12T20:21:08.365Z,29.67
2018-01-12T20:23:35.891Z,28.90
2018-01-12T20:26:03.394Z,28.55
2018-01-12T20:28:30.946Z,26.23
2018-01-12T20:30:58.461Z,28.75
2018-01-12T20:33:25.979Z,29.40
2018-01-12T20:35:53.476Z,30.10
2018-01-12T20:38:20.983Z,30.00
2018-01-12T20:40:48.493Z,30.02
2018-01-12T20:43:15.994Z,30.33
2018-01-12T20:45:43.500Z,31.73
2018-01-12T20:48:11.018Z,28.25
2018-01-12T20:50:38.536Z,30.88
2018-01-12T20:53:06.173Z,31.85
2018-01-12T20:55:33.680Z,31.95
2018-01-12T20:58:01.182Z,30.08
2018-01-12T21:00:29.470Z,33.05
2018-01-12T21:02:56.982Z,30.95
2018-01-12T21:05:24.690Z,31.95
2018-01-12T21:07:52.959Z,32.58
2018-01-12T21:10:20.466Z,32.03
2018-01-12T21:12:47.966Z,30.75
2018-01-12T21:15:16.235Z,31.60
2018-01-12T21:17:44.527Z,30.90
2018-01-12T21:20:12.815Z,31.40
2018-01-12T21:22:40.376Z,32.88
2018-01-12T21:25:07.847Z,33.22
2018-01-12T21:27:35.378Z,34.35
2018-01-12T21:30:03.659Z,33.38
2018-01-12T21:32:31.173Z,32.70
2018-01-12T21:34:58.696Z,32.08
2018-01-12T21:37:26.200Z,30.50
2018-01-12T21:39:53.708Z,30.40
2018-01-12T21:42:21.205Z,31.98
2018-01-12T21:44:48.747Z,31.50
2018-01-12T21:47:16.462Z,33.45
2018-01-12T21:49:44.746Z,30.80
2018-01-12T21:52:13.016Z,30.17
2018-01-12T21:54:41.283Z,32.00
2018-01-12T21:57:08.810Z,31.08
2018-01-12T21:59:36.316Z,29.40
2018-01-12T22:02:04.636Z,30.75
2018-01-12T22:04:32.158Z,30.37
2018-01-12T22:07:00.514Z,29.80
2018-01-12T22:09:28.026Z,31.23
2018-01-12T22:11:55.544Z,29.65
2018-01-12T22:14:23.829Z,31.62
2018-01-12T22:16:52.103Z,29.60
2018-01-12T22:19:20.380Z,29.33
2018-01-12T22:21:48.676Z,30.62
2018-01-12T22:24:16.260Z,30.73
2018-01-12T22:26:43.808Z,29.12
2018-01-12T22:29:11.325Z,29.77
2018-01-12T22:31:39.616Z,31.10
2018-01-12T22:34:07.895Z,31.00
2018-01-12T22:36:35.442Z,28.52
2018-01-12T22:39:03.770Z,29.10
2018-01-12T22:41:31.530Z,29.65
2018-01-12T22:43:59.087Z,29.65
2018-01-12T22:46:26.624Z,31.73
2018-01-12T22:48:54.156Z,29.37
2018-01-12T22:51:22.441Z,32.15
2018-01-12T22:53:50.780Z,31.45
2018-01-12T22:56:18.291Z,31.75
2018-01-12T22:58:45.831Z,29.37
2018-01-12T23:01:14.134Z,33.70
2018-01-12T23:03:41.942Z,30.40
2018-01-12T23:06:09.491Z,32.55
2018-01-12T23:08:37.056Z,31.90
2018-01-12T23:11:04.724Z,33.05
2018-01-12T23:13:32.380Z,33.95
2018-01-12T23:15:59.940Z,31.95
2018-01-12T23:18:27.600Z,34.33
2018-01-12T23:20:55.222Z,33.60
2018-01-12T23:23:22.735Z,32.83
2018-01-12T23:25:50.226Z,33.50
2018-01-12T23:28:17.732Z,31.17
2018-01-12T23:30:45.227Z,30.75
2018-01-12T23:33:13.490Z,32.10
2018-01-12T23:35:40.988Z,31.05
2018-01-12T23:38:08.498Z,29.42
2018-01-12T23:40:36.799Z,30.12
2018-01-12T23:43:05.072Z,30.42
2018-01-12T23:45:33.334Z,30.60
2018-01-12T23:48:00.870Z,33.30
2018-01-12T23:50:28.415Z,30.95
2018-01-12T23:52:56.470Z,30.30
2018-01-12T23:55:23.979Z,31.95
2018-01-12T23:57:51.471Z,30.98
